createdAt,value
2022-09-22T00:00:23.932Z,15.0
2022-09-22T00:05:30.140Z,14.0
2022-09-22T00:10:35.375Z,14.0
2022-09-22T00:15:41.581Z,14.0
2022-09-22T00:20:47.796Z,14.0
2022-09-22T00:25:54.006Z,14.5
2022-09-22T00:31:00.216Z,15.0
2022-09-22T00:36:06.420Z,15.0
2022-09-22T00:41:12.625Z,15.0
2022-09-22T00:46:18.866Z,15.0
2022-09-22T00:51:25.046Z,14.0
2022-09-22T00:56:31.252Z,14.0
2022-09-22T01:01:37.478Z,14.0
2022-09-22T01:06:43.665Z,13.0
2022-09-22T01:11:49.871Z,13.0
2022-09-22T01:16:56.085Z,12.0
2022-09-22T01:22:02.287Z,13.0
2022-09-22T01:27:08.500Z,13.0
2022-09-22T01:32:14.703Z,13.0
2022-09-22T01:37:20.910Z,12.0
2022-09-22T01:42:27.118Z,13.0
2022-09-22T01:47:33.329Z,12.0
2022-09-22T01:52:39.536Z,12.0
2022-09-22T01:57:44.773Z,11.0
2022-09-22T02:02:51.147Z,11.0
2022-09-22T02:07:56.212Z,11.0
2022-09-22T02:13:02.415Z,11.0
2022-09-22T02:18:08.640Z,12.0
2022-09-22T02:23:14.841Z,12.0
2022-09-22T02:28:21.043Z,12.0
2022-09-22T02:33:27.252Z,11.0
2022-09-22T02:38:33.457Z,11.0
2022-09-22T02:43:39.666Z,11.0
2022-09-22T02:48:45.865Z,11.0
2022-09-22T02:53:52.074Z,10.0
2022-09-22T02:58:58.713Z,10.0
2022-09-22T03:04:04.493Z,10.0
2022-09-22T03:09:10.705Z,10.0
2022-09-22T03:14:16.908Z,9.0
2022-09-22T03:19:23.114Z,9.0
2022-09-22T03:24:29.322Z,8.0
2022-09-22T03:29:35.530Z,8.0
2022-09-22T03:34:41.741Z,7.0
2022-09-22T03:39:47.947Z,7.0
2022-09-22T03:44:53.180Z,7.0
2022-09-22T03:49:59.384Z,7.0
2022-09-22T03:55:04.619Z,7.5
2022-09-22T04:00:10.853Z,7.0
2022-09-22T04:05:16.073Z,7.0
2022-09-22T04:10:22.264Z,8.0
2022-09-22T04:15:28.473Z,8.0
2022-09-22T04:20:34.688Z,8.0
2022-09-22T04:25:40.887Z,9.0
2022-09-22T04:30:47.390Z,9.0
2022-09-22T04:35:53.305Z,9.0
2022-09-22T04:40:59.514Z,8.0
2022-09-22T04:46:05.760Z,8.0
2022-09-22T04:51:11.928Z,8.0
2022-09-22T04:56:18.136Z,8.0
2022-09-22T05:01:24.363Z,8.0
2022-09-22T05:06:30.544Z,8.0
2022-09-22T05:11:36.757Z,8.0
2022-09-22T05:16:43.040Z,9.0
2022-09-22T05:21:49.171Z,9.0
2022-09-22T05:26:55.376Z,8.0
2022-09-22T05:32:01.638Z,9.0
2022-09-22T05:37:07.805Z,9.0
2022-09-22T05:42:13.998Z,10.0
2022-09-22T05:47:20.214Z,9.5
2022-09-22T05:52:25.454Z,10.0
2022-09-22T05:57:31.657Z,11.0
2022-09-22T06:02:36.941Z,11.0
2022-09-22T06:07:43.097Z,11.0
2022-09-22T06:12:49.307Z,12.0
2022-09-22T06:17:55.510Z,13.0
2022-09-22T06:23:01.720Z,16.0
2022-09-22T06:28:07.921Z,18.0
2022-09-22T06:33:14.141Z,22.0
2022-09-22T06:38:20.339Z,25.0
2022-09-22T06:43:26.547Z,20.0
2022-09-22T06:48:32.761Z,19.0
2022-09-22T06:53:38.961Z,19.0
2022-09-22T06:59:08.241Z,16.0
2022-09-22T07:03:51.382Z,16.0
2022-09-22T07:08:57.613Z,16.0
2022-09-22T07:14:03.799Z,15.0
2022-09-22T07:19:10.005Z,14.0
2022-09-22T07:24:16.216Z,13.0
2022-09-22T07:29:22.420Z,13.0
2022-09-22T07:34:28.632Z,13.0
2022-09-22T07:39:34.855Z,13.0
2022-09-22T07:44:44.342Z,13.0
2022-09-22T07:49:46.282Z,12.0
2022-09-22T07:54:52.489Z,13.0
2022-09-22T07:59:57.743Z,12.0
2022-09-22T08:05:03.945Z,13.0
2022-09-22T08:10:10.144Z,13.0
2022-09-22T08:15:16.354Z,13.0
2022-09-22T08:20:22.561Z,14.0
2022-09-22T08:25:28.777Z,15.0
2022-09-22T08:30:34.976Z,15.0
2022-09-22T08:35:41.196Z,14.0
2022-09-22T08:40:47.469Z,15.0
2022-09-22T08:45:53.620Z,14.0
2022-09-22T08:50:59.836Z,13.0
2022-09-22T08:56:06.043Z,12.5
2022-09-22T09:01:12.265Z,12.0
2022-09-22T09:06:18.492Z,11.0
2022-09-22T09:11:24.743Z,11.0
2022-09-22T09:16:32.985Z,11.0
2022-09-22T09:21:37.117Z,10.0
2022-09-22T09:31:49.530Z,10.0
2022-09-22T09:36:55.745Z,10.0
2022-09-22T09:42:01.952Z,9.0
2022-09-22T09:47:08.152Z,9.0
2022-09-22T09:52:13.397Z,8.0
2022-09-22T09:57:19.603Z,8.0
2022-09-22T10:02:25.804Z,7.0
2022-09-22T10:12:38.225Z,6.0
2022-09-22T10:17:44.431Z,6.0
2022-09-22T10:22:50.676Z,5.0
2022-09-22T10:27:56.847Z,5.0
2022-09-22T10:33:03.058Z,5.0
2022-09-22T10:38:09.265Z,5.0
2022-09-22T10:43:15.481Z,4.0
2022-09-22T10:48:21.699Z,4.0
2022-09-22T10:53:27.891Z,4.0
2022-09-22T10:58:34.096Z,4.0
2022-09-22T11:03:40.352Z,4.0
2022-09-22T11:08:46.515Z,4.0
2022-09-22T11:13:52.722Z,3.0
2022-09-22T11:18:58.933Z,3.0
2022-09-22T11:24:05.142Z,3.0
2022-09-22T11:29:11.352Z,3.0
2022-09-22T11:34:17.556Z,3.0
2022-09-22T11:39:22.798Z,3.0
2022-09-22T11:44:29.006Z,3.0
2022-09-22T11:49:35.214Z,3.0
2022-09-22T11:54:41.423Z,3.0
2022-09-22T11:59:47.631Z,2.0
2022-09-22T12:04:53.838Z,3.0
2022-09-22T12:10:00.081Z,2.0
2022-09-22T12:15:06.255Z,2.0
2022-09-22T12:20:12.467Z,4.0
2022-09-22T12:25:26.079Z,4.0
2022-09-22T12:30:24.930Z,3.0
2022-09-22T12:35:31.400Z,3.0
2022-09-22T12:40:37.444Z,2.5
2022-09-22T12:45:43.572Z,3.0
2022-09-22T12:50:49.719Z,3.0
2022-09-22T12:55:55.928Z,3.0
2022-09-22T13:01:02.290Z,3.0
2022-09-22T13:06:08.342Z,3.0
2022-09-22T13:11:14.555Z,4.0
2022-09-22T13:16:20.806Z,3.0
2022-09-22T13:21:26.971Z,4.0
2022-09-22T13:26:32.208Z,4.0
2022-09-22T13:31:38.473Z,3.0
2022-09-22T13:36:43.654Z,4.0
2022-09-22T13:41:49.889Z,3.0
2022-09-22T13:46:55.091Z,4.0
2022-09-22T13:52:01.308Z,3.0
2022-09-22T13:57:06.541Z,4.0
2022-09-22T14:02:12.889Z,3.0
2022-09-22T14:07:18.963Z,3.0
2022-09-22T14:12:25.161Z,3.0
2022-09-22T14:17:31.377Z,2.0
2022-09-22T14:22:37.617Z,2.0
2022-09-22T14:27:43.812Z,2.0
2022-09-22T14:32:50.003Z,3.0
2022-09-22T14:37:57.605Z,3.0
2022-09-22T14:43:02.428Z,4.0
2022-09-22T14:48:08.628Z,3.0
2022-09-22T14:53:14.839Z,3.0
2022-09-22T14:58:21.043Z,2.0
2022-09-22T15:03:27.255Z,3.0
2022-09-22T15:08:33.278Z,2.0
2022-09-22T15:13:39.485Z,3.0
2022-09-22T15:18:45.686Z,3.0
2022-09-22T15:23:51.894Z,3.0
2022-09-22T15:28:58.110Z,2.0
2022-09-22T15:34:04.321Z,2.0
2022-09-22T15:39:10.530Z,2.0
2022-09-22T15:44:15.970Z,3.0
2022-09-22T16:25:04.675Z,2.0
2022-09-22T16:30:10.881Z,5.0
2022-09-22T16:35:17.088Z,6.0
2022-09-22T16:40:23.340Z,2.0
2022-09-22T16:45:29.510Z,3.0
2022-09-22T16:50:35.717Z,3.0
2022-09-22T16:55:41.924Z,4.0
2022-09-22T17:00:48.166Z,2.0
2022-09-22T17:05:54.340Z,2.0
2022-09-22T17:11:00.554Z,2.0
2022-09-22T17:16:06.854Z,2.0
2022-09-22T17:21:12.963Z,2.0
2022-09-22T17:26:19.170Z,3.0
2022-09-22T17:31:25.403Z,2.5
2022-09-22T17:36:31.587Z,2.0
2022-09-22T17:41:36.827Z,3.0
2022-09-22T17:46:43.076Z,2.0
2022-09-22T17:51:49.234Z,3.0
2022-09-22T17:56:55.442Z,5.0
2022-09-22T18:02:01.697Z,5.0
2022-09-22T18:07:07.863Z,3.0
2022-09-22T18:12:14.063Z,3.0
2022-09-22T18:17:20.267Z,3.0
2022-09-22T18:22:26.481Z,4.0
2022-09-22T18:27:32.685Z,4.0
2022-09-22T18:32:38.906Z,3.0
2022-09-22T18:37:45.112Z,3.0
2022-09-22T18:42:51.329Z,3.0
2022-09-22T18:47:57.545Z,3.0
2022-09-22T18:53:03.761Z,3.0
2022-09-22T18:58:09.977Z,4.5
2022-09-22T19:03:16.189Z,3.0
2022-09-22T19:08:22.409Z,3.0
2022-09-22T19:13:28.608Z,5.0
2022-09-22T19:18:34.819Z,5.5
2022-09-22T19:23:41.036Z,4.0
2022-09-22T19:28:46.262Z,3.0
2022-09-22T19:33:52.471Z,4.0
2022-09-22T19:38:58.688Z,3.0
2022-09-22T19:44:04.888Z,4.0
2022-09-22T19:49:11.097Z,4.0
2022-09-22T19:54:17.306Z,4.0
2022-09-22T19:59:23.524Z,4.0
2022-09-22T20:04:29.737Z,4.0
2022-09-22T20:09:35.933Z,3.0
2022-09-22T20:14:42.139Z,4.0
2022-09-22T20:19:48.346Z,4.0
2022-09-22T20:24:54.555Z,5.0
2022-09-22T20:30:00.773Z,3.0
2022-09-22T20:35:07.008Z,3.0
2022-09-22T20:40:13.211Z,4.0
2022-09-22T20:45:19.391Z,4.0
2022-09-22T20:50:24.616Z,4.0
2022-09-22T20:55:30.821Z,4.0
2022-09-22T21:00:37.034Z,4.0
2022-09-22T21:05:43.247Z,4.0
2022-09-22T21:10:49.448Z,5.0
2022-09-22T21:15:54.746Z,5.0
2022-09-22T21:21:00.900Z,5.0
2022-09-22T21:26:06.129Z,5.0
2022-09-22T21:31:12.378Z,5.0
2022-09-22T21:36:18.548Z,4.0
2022-09-22T21:41:24.750Z,5.0
2022-09-22T21:46:31.063Z,5.0
2022-09-22T21:51:37.167Z,5.0
2022-09-22T21:56:43.371Z,5.0
2022-09-22T22:01:49.691Z,6.0
2022-09-22T22:06:55.793Z,6.0
2022-09-22T22:12:01.999Z,4.0
2022-09-22T22:17:08.214Z,5.0
2022-09-22T22:22:14.408Z,5.0
2022-09-22T22:27:20.623Z,5.0
2022-09-22T22:32:26.832Z,6.0
2022-09-22T22:37:33.040Z,8.0
2022-09-22T22:42:39.253Z,7.0
2022-09-22T22:47:45.456Z,8.0
2022-09-22T22:52:51.668Z,7.0
2022-09-22T22:57:57.876Z,6.0
2022-09-22T23:03:04.084Z,6.0
2022-09-22T23:08:10.292Z,6.0
2022-09-22T23:13:15.526Z,6.0
2022-09-22T23:18:21.730Z,7.0
2022-09-22T23:23:26.970Z,7.0
2022-09-22T23:28:33.180Z,7.0
2022-09-22T23:33:38.415Z,6.0
2022-09-22T23:38:44.626Z,7.0
2022-09-22T23:43:50.830Z,7.0
2022-09-22T23:48:57.036Z,8.0
2022-09-22T23:54:03.267Z,8.0
2022-09-22T23:59:09.512Z,8.0
